sensor_id;sensor_type;location;lat;lon;timestamp;pressure;altitude;pressure_sealevel;temperature;humidity
22572;BME280;11452;53.368;14.658;2023-02-02T00:04:30;99653.16;;;5.49;79.77
22572;BME280;11452;53.368;14.658;2023-02-02T00:09:34;99653.16;;;5.49;79.77
22572;BME280;11452;53.368;14.658;2023-02-02T00:14:40;99601.19;;;5.46;80.89
22572;BME280;11452;53.368;14.658;2023-02-02T00:19:46;99601.19;;;5.46;80.89
22572;BME280;11452;53.368;14.658;2023-02-02T00:24:52;99590.80;;;5.35;81.79
22572;BME280;11452;53.368;14.658;2023-02-02T00:29:57;99590.80;;;5.35;81.79
22572;BME280;11452;53.368;14.658;2023-02-02T00:35:03;99562.12;;;5.34;82.45
22572;BME280;11452;53.368;14.658;2023-02-02T00:40:10;99560.48;;;5.32;82.80
22572;BME280;11452;53.368;14.658;2023-02-02T00:45:16;99562.90;;;5.36;83.16
22572;BME280;11452;53.368;14.658;2023-02-02T00:50:21;99547.28;;;5.39;83.49
22572;BME280;11452;53.368;14.658;2023-02-02T00:55:27;99539.69;;;5.33;83.97
22572;BME280;11452;53.368;14.658;2023-02-02T01:00:33;99539.55;;;5.43;84.26
22572;BME280;11452;53.368;14.658;2023-02-02T01:05:38;99556.31;;;5.43;84.55
22572;BME280;11452;53.368;14.658;2023-02-02T01:10:44;99601.98;;;5.40;84.90
22572;BME280;11452;53.368;14.658;2023-02-02T01:15:55;99583.81;;;5.41;85.25
22572;BME280;11452;53.368;14.658;2023-02-02T01:21:04;99595.16;;;5.36;85.34
22572;BME280;11452;53.368;14.658;2023-02-02T01:26:11;99625.89;;;5.38;85.78
22572;BME280;11452;53.368;14.658;2023-02-02T01:31:19;99597.80;;;5.36;85.87
22572;BME280;11452;53.368;14.658;2023-02-02T01:36:24;99589.86;;;5.27;86.45
22572;BME280;11452;53.368;14.658;2023-02-02T01:41:30;99600.38;;;5.29;86.71
22572;BME280;11452;53.368;14.658;2023-02-02T01:46:37;99625.73;;;5.17;87.55
22572;BME280;11452;53.368;14.658;2023-02-02T01:51:49;99625.73;;;5.17;87.55
22572;BME280;11452;53.368;14.658;2023-02-02T01:57:03;99632.97;;;5.13;88.29
22572;BME280;11452;53.368;14.658;2023-02-02T02:02:03;99653.22;;;5.14;89.17
22572;BME280;11452;53.368;14.658;2023-02-02T02:07:09;99666.53;;;5.13;89.58
22572;BME280;11452;53.368;14.658;2023-02-02T02:12:16;99703.61;;;5.13;90.15
22572;BME280;11452;53.368;14.658;2023-02-02T02:17:27;99713.95;;;5.09;90.67
22572;BME280;11452;53.368;14.658;2023-02-02T02:33:53;99746.89;;;5.03;91.39
22572;BME280;11452;53.368;14.658;2023-02-02T02:39:28;99804.99;;;4.98;91.43
22572;BME280;11452;53.368;14.658;2023-02-02T02:44:35;99824.27;;;4.91;91.66
22572;BME280;11452;53.368;14.658;2023-02-02T02:49:43;99785.03;;;4.91;92.12
22572;BME280;11452;53.368;14.658;2023-02-02T02:54:57;99776.23;;;4.81;92.51
22572;BME280;11452;53.368;14.658;2023-02-02T03:00:23;99805.09;;;4.86;92.95
22572;BME280;11452;53.368;14.658;2023-02-02T03:10:33;99826.59;;;4.88;93.14
22572;BME280;11452;53.368;14.658;2023-02-02T03:15:44;99842.30;;;4.83;93.16
22572;BME280;11452;53.368;14.658;2023-02-02T03:20:49;99837.24;;;4.78;93.29
22572;BME280;11452;53.368;14.658;2023-02-02T03:25:55;99884.48;;;4.77;93.21
22572;BME280;11452;53.368;14.658;2023-02-02T03:31:01;99895.54;;;4.77;93.24
22572;BME280;11452;53.368;14.658;2023-02-02T03:36:08;99917.17;;;4.76;93.31
22572;BME280;11452;53.368;14.658;2023-02-02T03:41:13;99917.17;;;4.76;93.31
22572;BME280;11452;53.368;14.658;2023-02-02T03:46:18;99947.94;;;4.69;92.93
22572;BME280;11452;53.368;14.658;2023-02-02T03:51:24;99947.94;;;4.69;92.81
22572;BME280;11452;53.368;14.658;2023-02-02T03:56:29;99993.41;;;4.78;93.12
22572;BME280;11452;53.368;14.658;2023-02-02T04:01:35;99984.14;;;4.78;92.74
22572;BME280;11452;53.368;14.658;2023-02-02T04:06:40;99989.77;;;4.81;92.41
22572;BME280;11452;53.368;14.658;2023-02-02T04:11:46;100014.81;;;4.82;91.86
22572;BME280;11452;53.368;14.658;2023-02-02T04:16:52;100051.55;;;4.90;91.72
22572;BME280;11452;53.368;14.658;2023-02-02T04:21:57;100051.55;;;4.90;91.72
22572;BME280;11452;53.368;14.658;2023-02-02T04:27:03;100054.13;;;4.92;91.11
22572;BME280;11452;53.368;14.658;2023-02-02T04:32:08;100071.06;;;4.87;90.58
22572;BME280;11452;53.368;14.658;2023-02-02T04:37:14;100147.23;;;4.71;88.84
22572;BME280;11452;53.368;14.658;2023-02-02T04:42:19;100119.31;;;4.74;88.88
22572;BME280;11452;53.368;14.658;2023-02-02T04:47:25;100127.59;;;4.76;88.17
22572;BME280;11452;53.368;14.658;2023-02-02T04:52:31;100139.88;;;4.67;87.16
22572;BME280;11452;53.368;14.658;2023-02-02T04:57:36;100154.03;;;4.66;86.46
22572;BME280;11452;53.368;14.658;2023-02-02T05:02:42;100233.12;;;4.52;84.57
22572;BME280;11452;53.368;14.658;2023-02-02T05:07:48;100233.12;;;4.52;84.57
22572;BME280;11452;53.368;14.658;2023-02-02T05:12:54;100202.56;;;4.45;84.62
22572;BME280;11452;53.368;14.658;2023-02-02T05:18:00;100232.98;;;4.33;83.89
22572;BME280;11452;53.368;14.658;2023-02-02T05:23:05;100237.17;;;4.27;84.06
22572;BME280;11452;53.368;14.658;2023-02-02T05:28:11;100248.70;;;4.26;84.10
22572;BME280;11452;53.368;14.658;2023-02-02T05:33:19;100269.52;;;4.24;83.69
22572;BME280;11452;53.368;14.658;2023-02-02T05:38:24;100291.94;;;4.25;83.42
22572;BME280;11452;53.368;14.658;2023-02-02T05:43:31;100285.64;;;4.28;83.36
22572;BME280;11452;53.368;14.658;2023-02-02T05:48:37;100299.67;;;4.30;83.17
22572;BME280;11452;53.368;14.658;2023-02-02T05:53:43;100312.44;;;4.30;82.87
22572;BME280;11452;53.368;14.658;2023-02-02T05:58:49;100323.08;;;4.29;82.56
22572;BME280;11452;53.368;14.658;2023-02-02T06:03:54;100345.34;;;4.23;82.22
22572;BME280;11452;53.368;14.658;2023-02-02T06:09:00;100356.14;;;4.17;81.80
22572;BME280;11452;53.368;14.658;2023-02-02T06:14:06;100353.49;;;4.17;82.01
22572;BME280;11452;53.368;14.658;2023-02-02T06:19:12;100365.28;;;4.20;82.23
22572;BME280;11452;53.368;14.658;2023-02-02T06:24:17;100381.61;;;4.20;81.84
22572;BME280;11452;53.368;14.658;2023-02-02T06:29:23;100386.80;;;4.23;82.12
22572;BME280;11452;53.368;14.658;2023-02-02T06:34:28;100396.57;;;4.32;82.11
22572;BME280;11452;53.368;14.658;2023-02-02T06:39:34;100414.46;;;4.26;82.18
22572;BME280;11452;53.368;14.658;2023-02-02T06:44:39;100426.13;;;4.32;82.36
22572;BME280;11452;53.368;14.658;2023-02-02T06:49:45;100437.41;;;4.25;82.19
22572;BME280;11452;53.368;14.658;2023-02-02T06:54:50;100453.78;;;4.23;82.51
22572;BME280;11452;53.368;14.658;2023-02-02T06:59:56;100466.95;;;4.25;82.68
22572;BME280;11452;53.368;14.658;2023-02-02T07:05:01;100468.13;;;4.16;82.76
22572;BME280;11452;53.368;14.658;2023-02-02T07:10:08;100480.22;;;4.10;82.73
22572;BME280;11452;53.368;14.658;2023-02-02T07:15:15;100485.21;;;3.93;83.29
22572;BME280;11452;53.368;14.658;2023-02-02T07:20:21;100489.94;;;3.96;83.70
22572;BME280;11452;53.368;14.658;2023-02-02T07:25:26;100503.58;;;3.84;83.76
22572;BME280;11452;53.368;14.658;2023-02-02T07:30:32;100512.15;;;3.91;84.27
22572;BME280;11452;53.368;14.658;2023-02-02T07:35:38;100521.86;;;3.90;84.35
22572;BME280;11452;53.368;14.658;2023-02-02T07:40:44;100524.81;;;3.94;85.04
22572;BME280;11452;53.368;14.658;2023-02-02T07:45:49;100530.15;;;3.93;85.35
22572;BME280;11452;53.368;14.658;2023-02-02T07:51:03;100547.19;;;3.84;85.55
22572;BME280;11452;53.368;14.658;2023-02-02T07:56:20;100561.05;;;3.91;85.97
22572;BME280;11452;53.368;14.658;2023-02-02T08:01:22;100572.72;;;3.98;86.03
22572;BME280;11452;53.368;14.658;2023-02-02T08:06:32;100586.07;;;3.94;85.63
22572;BME280;11452;53.368;14.658;2023-02-02T08:11:38;100598.02;;;3.92;85.73
22572;BME280;11452;53.368;14.658;2023-02-02T08:16:44;100610.41;;;4.05;85.58
22572;BME280;11452;53.368;14.658;2023-02-02T08:21:49;100603.63;;;4.09;85.06
22572;BME280;11452;53.368;14.658;2023-02-02T08:26:54;100624.87;;;4.08;84.69
22572;BME280;11452;53.368;14.658;2023-02-02T08:32:00;100626.38;;;4.15;84.64
22572;BME280;11452;53.368;14.658;2023-02-02T08:37:06;100642.14;;;4.05;83.48
22572;BME280;11452;53.368;14.658;2023-02-02T08:42:11;100646.58;;;4.17;83.36
22572;BME280;11452;53.368;14.658;2023-02-02T08:47:17;100670.61;;;4.10;82.53
22572;BME280;11452;53.368;14.658;2023-02-02T08:52:23;100666.55;;;4.13;82.99
22572;BME280;11452;53.368;14.658;2023-02-02T08:57:29;100680.23;;;4.12;82.73
22572;BME280;11452;53.368;14.658;2023-02-02T09:02:36;100666.69;;;4.08;82.16
22572;BME280;11452;53.368;14.658;2023-02-02T09:07:41;100683.54;;;4.06;82.21
22572;BME280;11452;53.368;14.658;2023-02-02T09:12:47;100700.58;;;3.96;81.84
22572;BME280;11452;53.368;14.658;2023-02-02T09:17:52;100699.91;;;3.89;82.41
22572;BME280;11452;53.368;14.658;2023-02-02T09:22:58;100743.66;;;3.99;81.91
22572;BME280;11452;53.368;14.658;2023-02-02T09:28:03;100743.66;;;3.99;81.91
22572;BME280;11452;53.368;14.658;2023-02-02T09:33:10;100716.18;;;4.05;81.23
22572;BME280;11452;53.368;14.658;2023-02-02T09:38:15;100730.44;;;3.99;79.99
22572;BME280;11452;53.368;14.658;2023-02-02T09:48:48;100751.08;;;4.31;79.23
22572;BME280;11452;53.368;14.658;2023-02-02T09:53:55;100755.61;;;4.42;79.39
22572;BME280;11452;53.368;14.658;2023-02-02T09:59:02;100766.39;;;4.49;78.31
22572;BME280;11452;53.368;14.658;2023-02-02T10:04:30;100771.61;;;4.65;77.81
22572;BME280;11452;53.368;14.658;2023-02-02T10:14:55;100799.50;;;4.77;76.02
22572;BME280;11452;53.368;14.658;2023-02-02T10:25:28;100818.25;;;4.69;75.54
22572;BME280;11452;53.368;14.658;2023-02-02T10:30:38;100851.18;;;4.61;75.19
22572;BME280;11452;53.368;14.658;2023-02-02T10:35:46;100851.18;;;4.61;75.19
22572;BME280;11452;53.368;14.658;2023-02-02T10:41:01;100868.03;;;4.11;74.71
22572;BME280;11452;53.368;14.658;2023-02-02T10:46:07;100871.52;;;3.80;75.70
22572;BME280;11452;53.368;14.658;2023-02-02T10:51:22;100881.52;;;4.02;77.09
22572;BME280;11452;53.368;14.658;2023-02-02T10:56:35;100876.55;;;4.22;76.64
22572;BME280;11452;53.368;14.658;2023-02-02T11:01:42;100884.91;;;4.23;77.01
22572;BME280;11452;53.368;14.658;2023-02-02T11:06:47;100897.34;;;4.50;76.68
22572;BME280;11452;53.368;14.658;2023-02-02T11:12:04;100897.34;;;4.50;76.68
22572;BME280;11452;53.368;14.658;2023-02-02T11:17:21;100917.73;;;4.31;75.11
22572;BME280;11452;53.368;14.658;2023-02-02T11:22:34;100928.52;;;4.25;75.81
22572;BME280;11452;53.368;14.658;2023-02-02T11:27:41;100945.78;;;4.38;75.42
22572;BME280;11452;53.368;14.658;2023-02-02T11:32:48;100939.44;;;4.27;75.13
22572;BME280;11452;53.368;14.658;2023-02-02T11:38:07;100949.52;;;4.29;75.24
22572;BME280;11452;53.368;14.658;2023-02-02T11:48:31;100958.37;;;4.12;73.65
22572;BME280;11452;53.368;14.658;2023-02-02T11:58:47;100964.56;;;4.27;72.74
22572;BME280;11452;53.368;14.658;2023-02-02T12:03:56;100964.56;;;4.27;72.74
22572;BME280;11452;53.368;14.658;2023-02-02T12:09:13;100968.84;;;4.33;72.06
22572;BME280;11452;53.368;14.658;2023-02-02T12:14:45;100977.38;;;4.44;72.18
22572;BME280;11452;53.368;14.658;2023-02-02T12:25:23;101008.22;;;4.45;70.60
22572;BME280;11452;53.368;14.658;2023-02-02T12:30:26;100989.69;;;4.45;70.60
22572;BME280;11452;53.368;14.658;2023-02-02T12:41:11;101025.11;;;4.56;68.87
22572;BME280;11452;53.368;14.658;2023-02-02T12:57:27;101054.47;;;4.95;68.51
22572;BME280;11452;53.368;14.658;2023-02-02T13:08:05;101070.73;;;4.98;67.37
22572;BME280;11452;53.368;14.658;2023-02-02T13:13:24;101085.58;;;4.87;66.33
22572;BME280;11452;53.368;14.658;2023-02-02T13:18:36;101087.58;;;4.95;66.29
22572;BME280;11452;53.368;14.658;2023-02-02T13:23:50;101097.06;;;5.02;66.21
22572;BME280;11452;53.368;14.658;2023-02-02T13:39:52;101124.23;;;4.78;64.53
22572;BME280;11452;53.368;14.658;2023-02-02T13:44:59;101142.47;;;4.88;64.67
22572;BME280;11452;53.368;14.658;2023-02-02T13:50:09;101156.89;;;4.95;64.32
22572;BME280;11452;53.368;14.658;2023-02-02T13:55:29;101161.66;;;4.98;64.69
22572;BME280;11452;53.368;14.658;2023-02-02T14:00:41;101180.23;;;4.97;64.48
22572;BME280;11452;53.368;14.658;2023-02-02T14:06:06;101181.34;;;4.70;63.45
22572;BME280;11452;53.368;14.658;2023-02-02T14:11:20;101186.88;;;4.61;63.96
22572;BME280;11452;53.368;14.658;2023-02-02T14:27:00;101213.20;;;4.66;64.42
22572;BME280;11452;53.368;14.658;2023-02-02T14:48:23;101247.50;;;4.52;64.63
22572;BME280;11452;53.368;14.658;2023-02-02T14:53:45;101267.77;;;4.53;64.69
22572;BME280;11452;53.368;14.658;2023-02-02T14:58:53;101285.33;;;4.38;64.74
22572;BME280;11452;53.368;14.658;2023-02-02T15:09:32;101293.12;;;4.25;65.17
22572;BME280;11452;53.368;14.658;2023-02-02T15:14:40;101313.44;;;4.23;65.41
22572;BME280;11452;53.368;14.658;2023-02-02T15:19:47;101324.62;;;4.15;65.53
22572;BME280;11452;53.368;14.658;2023-02-02T15:24:53;101347.30;;;4.06;65.87
22572;BME280;11452;53.368;14.658;2023-02-02T15:30:06;101349.38;;;4.11;65.97
22572;BME280;11452;53.368;14.658;2023-02-02T15:35:18;101365.52;;;3.97;66.05
22572;BME280;11452;53.368;14.658;2023-02-02T15:40:25;101373.91;;;3.97;66.20
22572;BME280;11452;53.368;14.658;2023-02-02T15:50:45;101399.71;;;3.84;66.35
22572;BME280;11452;53.368;14.658;2023-02-02T15:55:52;101401.38;;;3.90;66.69
22572;BME280;11452;53.368;14.658;2023-02-02T16:01:02;101417.64;;;3.91;66.63
22572;BME280;11452;53.368;14.658;2023-02-02T16:06:07;101431.36;;;3.89;66.74
22572;BME280;11452;53.368;14.658;2023-02-02T16:11:19;101438.79;;;3.91;66.36
22572;BME280;11452;53.368;14.658;2023-02-02T16:16:35;101453.34;;;3.65;66.66
22572;BME280;11452;53.368;14.658;2023-02-02T16:21:47;101464.94;;;3.55;66.88
22572;BME280;11452;53.368;14.658;2023-02-02T16:26:54;101469.42;;;3.52;67.27
22572;BME280;11452;53.368;14.658;2023-02-02T16:32:01;101478.23;;;3.52;67.33
22572;BME280;11452;53.368;14.658;2023-02-02T16:37:29;101481.27;;;3.53;67.58
22572;BME280;11452;53.368;14.658;2023-02-02T16:42:36;101490.49;;;3.55;67.78
22572;BME280;11452;53.368;14.658;2023-02-02T16:47:41;101499.39;;;3.51;67.82
22572;BME280;11452;53.368;14.658;2023-02-02T16:57:59;101506.33;;;3.56;68.04
22572;BME280;11452;53.368;14.658;2023-02-02T17:03:07;101517.05;;;3.47;67.57
22572;BME280;11452;53.368;14.658;2023-02-02T17:08:14;101518.50;;;3.36;67.78
22572;BME280;11452;53.368;14.658;2023-02-02T17:13:34;101530.55;;;3.26;67.98
22572;BME280;11452;53.368;14.658;2023-02-02T17:18:39;101531.96;;;3.18;68.14
22572;BME280;11452;53.368;14.658;2023-02-02T17:23:45;101535.61;;;3.09;68.45
22572;BME280;11452;53.368;14.658;2023-02-02T17:28:55;101543.66;;;2.97;68.35
22572;BME280;11452;53.368;14.658;2023-02-02T17:34:01;101549.15;;;2.81;68.56
22572;BME280;11452;53.368;14.658;2023-02-02T17:39:07;101559.34;;;2.76;69.06
22572;BME280;11452;53.368;14.658;2023-02-02T17:44:14;101573.02;;;2.71;69.22
22572;BME280;11452;53.368;14.658;2023-02-02T17:49:20;101577.47;;;2.65;69.42
22572;BME280;11452;53.368;14.658;2023-02-02T17:54:25;101588.12;;;2.57;69.72
22572;BME280;11452;53.368;14.658;2023-02-02T17:59:31;101587.74;;;2.50;70.06
22572;BME280;11452;53.368;14.658;2023-02-02T18:04:36;101578.96;;;2.48;70.22
22572;BME280;11452;53.368;14.658;2023-02-02T18:09:42;101590.88;;;2.43;70.64
22572;BME280;11452;53.368;14.658;2023-02-02T18:14:47;101593.52;;;2.42;70.82
22572;BME280;11452;53.368;14.658;2023-02-02T18:19:53;101599.30;;;2.37;70.90
22572;BME280;11452;53.368;14.658;2023-02-02T18:24:59;101608.56;;;2.32;70.98
22572;BME280;11452;53.368;14.658;2023-02-02T18:30:05;101603.75;;;2.29;71.14
22572;BME280;11452;53.368;14.658;2023-02-02T18:35:11;101614.39;;;2.20;71.30
22572;BME280;11452;53.368;14.658;2023-02-02T18:40:17;101615.77;;;2.11;71.70
22572;BME280;11452;53.368;14.658;2023-02-02T18:45:23;101627.70;;;2.03;71.84
22572;BME280;11452;53.368;14.658;2023-02-02T18:50:29;101623.77;;;2.00;72.29
22572;BME280;11452;53.368;14.658;2023-02-02T18:55:36;101620.27;;;1.96;72.43
22572;BME280;11452;53.368;14.658;2023-02-02T19:00:42;101614.55;;;1.97;72.59
22572;BME280;11452;53.368;14.658;2023-02-02T19:05:50;101618.08;;;1.94;72.68
22572;BME280;11452;53.368;14.658;2023-02-02T19:11:21;101611.95;;;1.91;72.94
22572;BME280;11452;53.368;14.658;2023-02-02T19:16:29;101628.22;;;1.86;73.09
22572;BME280;11452;53.368;14.658;2023-02-02T19:21:35;101623.38;;;1.88;73.45
22572;BME280;11452;53.368;14.658;2023-02-02T19:26:46;101627.39;;;1.84;73.61
22572;BME280;11452;53.368;14.658;2023-02-02T19:31:57;101635.73;;;1.85;73.85
22572;BME280;11452;53.368;14.658;2023-02-02T19:37:24;101644.53;;;1.79;74.08
22572;BME280;11452;53.368;14.658;2023-02-02T19:42:30;101643.65;;;1.82;74.34
22572;BME280;11452;53.368;14.658;2023-02-02T19:47:36;101643.20;;;1.82;74.37
22572;BME280;11452;53.368;14.658;2023-02-02T19:52:42;101643.66;;;1.79;74.54
22572;BME280;11452;53.368;14.658;2023-02-02T19:57:51;101647.63;;;1.77;74.69
22572;BME280;11452;53.368;14.658;2023-02-02T20:03:05;101643.67;;;1.76;74.82
22572;BME280;11452;53.368;14.658;2023-02-02T20:08:34;101644.55;;;1.74;75.08
22572;BME280;11452;53.368;14.658;2023-02-02T20:13:45;101637.95;;;1.78;75.26
22572;BME280;11452;53.368;14.658;2023-02-02T20:18:56;101640.14;;;1.80;75.40
22572;BME280;11452;53.368;14.658;2023-02-02T20:24:10;101642.36;;;1.76;75.57
22572;BME280;11452;53.368;14.658;2023-02-02T20:29:24;101638.40;;;1.76;75.69
22572;BME280;11452;53.368;14.658;2023-02-02T20:34:34;101634.86;;;1.81;75.65
22572;BME280;11452;53.368;14.658;2023-02-02T20:39:44;101634.86;;;1.83;75.64
22572;BME280;11452;53.368;14.658;2023-02-02T20:44:51;101637.10;;;1.71;75.64
22572;BME280;11452;53.368;14.658;2023-02-02T20:49:57;101641.48;;;1.73;75.73
22572;BME280;11452;53.368;14.658;2023-02-02T20:55:05;101645.55;;;1.49;75.89
22572;BME280;11452;53.368;14.658;2023-02-02T21:00:13;101657.00;;;1.45;76.25
22572;BME280;11452;53.368;14.658;2023-02-02T21:05:19;101649.57;;;1.31;76.38
22572;BME280;11452;53.368;14.658;2023-02-02T21:10:26;101648.68;;;1.38;76.47
22572;BME280;11452;53.368;14.658;2023-02-02T21:15:32;101636.83;;;1.36;76.62
22572;BME280;11452;53.368;14.658;2023-02-02T21:20:38;101638.14;;;1.38;76.67
22572;BME280;11452;53.368;14.658;2023-02-02T21:25:43;101634.70;;;1.18;76.90
22572;BME280;11452;53.368;14.658;2023-02-02T21:30:48;101630.33;;;1.15;77.45
22572;BME280;11452;53.368;14.658;2023-02-02T21:35:56;101633.39;;;1.18;77.80
22572;BME280;11452;53.368;14.658;2023-02-02T21:41:07;101628.61;;;1.07;78.08
22572;BME280;11452;53.368;14.658;2023-02-02T21:46:18;101627.70;;;1.12;78.03
22572;BME280;11452;53.368;14.658;2023-02-02T21:51:32;101634.26;;;1.24;78.33
22572;BME280;11452;53.368;14.658;2023-02-02T21:56:38;101632.94;;;1.24;78.36
22572;BME280;11452;53.368;14.658;2023-02-02T22:01:44;101631.58;;;1.33;78.70
22572;BME280;11452;53.368;14.658;2023-02-02T22:06:58;101618.83;;;1.39;78.72
22572;BME280;11452;53.368;14.658;2023-02-02T22:12:10;101614.44;;;1.41;78.93
22572;BME280;11452;53.368;14.658;2023-02-02T22:17:22;101610.92;;;1.44;79.00
22572;BME280;11452;53.368;14.658;2023-02-02T22:22:33;101603.84;;;1.50;79.03
22572;BME280;11452;53.368;14.658;2023-02-02T22:27:49;101605.64;;;1.47;78.88
22572;BME280;11452;53.368;14.658;2023-02-02T22:32:55;101606.96;;;1.45;79.29
22572;BME280;11452;53.368;14.658;2023-02-02T22:38:01;101593.80;;;1.44;79.49
22572;BME280;11452;53.368;14.658;2023-02-02T22:43:07;101590.67;;;1.49;79.74
22572;BME280;11452;53.368;14.658;2023-02-02T22:48:14;101590.63;;;1.61;79.77
22572;BME280;11452;53.368;14.658;2023-02-02T22:53:20;101589.33;;;1.58;79.76
22572;BME280;11452;53.368;14.658;2023-02-02T22:58:29;101592.39;;;1.59;79.81
22572;BME280;11452;53.368;14.658;2023-02-02T23:03:34;101577.89;;;1.63;79.56
22572;BME280;11452;53.368;14.658;2023-02-02T23:08:40;101569.05;;;1.69;79.82
22572;BME280;11452;53.368;14.658;2023-02-02T23:13:45;101569.97;;;1.66;79.63
22572;BME280;11452;53.368;14.658;2023-02-02T23:18:51;101563.29;;;1.79;79.93
22572;BME280;11452;53.368;14.658;2023-02-02T23:23:56;101565.45;;;1.85;79.82
22572;BME280;11452;53.368;14.658;2023-02-02T23:29:02;101559.25;;;1.88;79.78
22572;BME280;11452;53.368;14.658;2023-02-02T23:34:07;101562.31;;;1.90;79.79
22572;BME280;11452;53.368;14.658;2023-02-02T23:39:13;101554.80;;;1.97;79.75
22572;BME280;11452;53.368;14.658;2023-02-02T23:44:18;101558.75;;;1.99;79.69
22572;BME280;11452;53.368;14.658;2023-02-02T23:49:24;101559.52;;;2.10;79.84
22572;BME280;11452;53.368;14.658;2023-02-02T23:54:30;101550.81;;;2.03;79.56
22572;BME280;11452;53.368;14.658;2023-02-02T23:59:36;101547.67;;;2.08;79.71
